Time;durP1;ratioP1;P1;durP2;ratioP2;P2;SDS_P1;SDS_P2;PMS_P1;PMS_P2;Temp;Humidity;BMP_temperature;BMP_pressure;BME280_temperature;BME280_humidity;BME280_pressure;Samples;Min_cycle;Max_cycle;Signal;HPM_P1;HPM_P2
2023/06/17 00:00:55;;;;;;;4.68;4.25;;;16.20;99.90;;;;;;5003653;28;20208;-81
2023/06/17 00:03:22;;;;;;;4.70;4.18;;;16.20;99.90;;;;;;5003288;28;20096;-81
2023/06/17 00:05:49;;;;;;;4.57;4.07;;;16.20;99.90;;;;;;5003336;28;20239;-82
2023/06/17 00:08:16;;;;;;;4.25;3.85;;;16.10;99.90;;;;;;5003058;28;20058;-81
2023/06/17 00:10:43;;;;;;;4.40;3.60;;;16.10;99.90;;;;;;4987804;28;20046;-81
2023/06/17 00:13:10;;;;;;;3.90;3.53;;;16.10;99.90;;;;;;5002334;28;20056;-81
2023/06/17 00:15:37;;;;;;;4.95;4.45;;;16.00;99.90;;;;;;4987782;28;20049;-81
2023/06/17 00:18:07;;;;;;;4.85;4.35;;;16.00;99.90;;;;;;5003799;28;20106;-81
2023/06/17 00:20:36;;;;;;;5.38;4.18;;;16.00;99.90;;;;;;5005549;28;20057;-81
2023/06/17 00:23:04;;;;;;;6.22;4.43;;;16.00;99.90;;;;;;5003332;28;20578;-81
2023/06/17 00:25:31;;;;;;;5.15;4.18;;;16.00;99.90;;;;;;4985596;28;20053;-80
2023/06/17 00:27:57;;;;;;;4.45;4.00;;;16.00;99.90;;;;;;4985432;28;20337;-81
2023/06/17 00:30:24;;;;;;;5.55;4.55;;;16.00;99.90;;;;;;4987699;28;20049;-82
2023/06/17 00:32:51;;;;;;;4.38;3.97;;;16.00;99.90;;;;;;5003297;28;20137;-81
2023/06/17 00:35:20;;;;;;;5.40;4.30;;;15.90;99.90;;;;;;5003407;28;20145;-81
2023/06/17 00:37:46;;;;;;;5.43;4.70;;;15.90;99.90;;;;;;4987185;28;20440;-81
2023/06/17 00:40:13;;;;;;;5.78;5.28;;;15.80;99.90;;;;;;5003397;28;20050;-81
2023/06/17 00:42:40;;;;;;;5.97;5.13;;;15.70;99.90;;;;;;5002062;28;20057;-81
2023/06/17 00:45:07;;;;;;;5.18;4.55;;;15.70;99.90;;;;;;5004152;28;20061;-81
2023/06/17 00:47:34;;;;;;;4.93;4.43;;;15.60;99.90;;;;;;5003871;28;20054;-82
2023/06/17 00:50:02;;;;;;;4.35;3.80;;;15.60;99.90;;;;;;5002509;28;20510;-81
2023/06/17 00:52:29;;;;;;;5.28;4.53;;;15.60;99.90;;;;;;5002278;28;20060;-81
2023/06/17 00:55:08;;;;;;;5.28;4.78;;;15.50;99.90;;;;;;4988346;28;20056;-81
2023/06/17 00:57:35;;;;;;;5.68;4.47;;;15.50;99.90;;;;;;5002694;28;20061;-81
2023/06/17 01:00:06;;;;;;;4.47;4.07;;;15.40;99.90;;;;;;5003487;28;20046;-81
2023/06/17 01:02:32;;;;;;;5.03;4.53;;;15.40;99.90;;;;;;5001419;28;20065;-81
2023/06/17 01:05:02;;;;;;;5.20;4.70;;;15.40;99.90;;;;;;5000629;28;20064;-81
2023/06/17 01:07:46;;;;;;;5.15;3.88;;;15.40;99.90;;;;;;5001422;28;20053;-80
2023/06/17 01:10:22;;;;;;;4.88;4.38;;;15.40;99.90;;;;;;4988587;28;20129;-81
2023/06/17 01:12:49;;;;;;;4.72;4.28;;;15.40;99.90;;;;;;5002143;28;20050;-81
2023/06/17 01:15:16;;;;;;;4.40;3.97;;;15.40;99.90;;;;;;5006974;28;20108;-81
2023/06/17 01:17:45;;;;;;;6.20;4.40;;;15.30;99.90;;;;;;5009936;28;20442;-81
2023/06/17 01:20:13;;;;;;;5.35;4.47;;;15.30;99.90;;;;;;4993965;28;20537;-81
2023/06/17 01:22:40;;;;;;;5.18;4.68;;;15.20;99.90;;;;;;5009422;28;20516;-81
2023/06/17 01:25:08;;;;;;;4.90;4.40;;;15.20;99.90;;;;;;4988355;28;20479;-81
2023/06/17 01:27:35;;;;;;;4.22;3.83;;;15.20;99.90;;;;;;5009574;28;20060;-81
2023/06/17 01:30:02;;;;;;;4.72;4.22;;;15.20;99.90;;;;;;4993388;28;20053;-81
2023/06/17 01:32:29;;;;;;;4.53;3.90;;;15.30;99.90;;;;;;5006690;28;20089;-81
2023/06/17 01:35:00;;;;;;;4.55;4.15;;;15.20;99.90;;;;;;4993870;28;20042;-82
2023/06/17 01:37:45;;;;;;;4.43;4.03;;;15.20;99.90;;;;;;5009672;28;20064;-81
2023/06/17 01:40:13;;;;;;;4.68;4.18;;;15.20;99.90;;;;;;4978813;28;20513;-81
2023/06/17 01:42:44;;;;;;;5.47;4.88;;;15.00;99.90;;;;;;4983948;28;20061;-81
2023/06/17 01:45:10;;;;;;;5.00;4.53;;;15.00;99.90;;;;;;5012149;28;20131;-81
2023/06/17 01:47:37;;;;;;;5.38;4.88;;;14.80;99.90;;;;;;5010217;28;20155;-81
2023/06/17 01:50:05;;;;;;;5.43;4.93;;;14.80;99.90;;;;;;5010065;28;20508;-81
2023/06/17 01:52:32;;;;;;;5.18;4.68;;;14.60;99.90;;;;;;4994420;28;20133;-81
2023/06/17 01:54:59;;;;;;;5.63;4.93;;;14.60;99.90;;;;;;5010041;28;20100;-81
2023/06/17 01:57:26;;;;;;;5.55;5.00;;;14.50;99.90;;;;;;4994316;28;20121;-82
2023/06/17 01:59:53;;;;;;;6.35;4.97;;;14.50;99.90;;;;;;5011336;28;20078;-82
2023/06/17 02:02:20;;;;;;;5.57;4.50;;;14.50;99.90;;;;;;5010485;28;20113;-82
2023/06/17 02:04:47;;;;;;;4.68;4.20;;;14.50;99.90;;;;;;5011001;28;20049;-82
2023/06/17 02:07:16;;;;;;;4.45;4.05;;;14.60;99.90;;;;;;5009833;28;20445;-82
2023/06/17 02:09:44;;;;;;;4.43;4.03;;;14.60;99.90;;;;;;5010493;28;20053;-82
2023/06/17 02:12:11;;;;;;;3.60;3.22;;;14.60;99.90;;;;;;4994565;28;20108;-83
2023/06/17 02:14:38;;;;;;;4.38;3.80;;;14.60;99.90;;;;;;5012271;28;20053;-82
2023/06/17 02:17:04;;;;;;;4.10;3.70;;;14.60;99.90;;;;;;5011958;28;20107;-82
2023/06/17 02:19:35;;;;;;;4.07;3.65;;;14.60;99.90;;;;;;5012237;28;20063;-82
2023/06/17 02:22:02;;;;;;;4.47;4.07;;;14.60;99.90;;;;;;4994671;28;20133;-82
2023/06/17 02:24:29;;;;;;;3.78;3.47;;;14.60;99.90;;;;;;5010725;28;20050;-82
2023/06/17 02:26:56;;;;;;;3.78;3.40;;;14.60;99.90;;;;;;5009047;28;20061;-82
2023/06/17 02:29:25;;;;;;;3.85;3.20;;;14.60;99.90;;;;;;4975049;28;20050;-82
2023/06/17 02:31:52;;;;;;;4.43;4.03;;;14.70;99.90;;;;;;5007361;28;20058;-82
2023/06/17 02:34:19;;;;;;;4.13;3.72;;;14.60;99.90;;;;;;4975135;28;20176;-82
2023/06/17 02:36:46;;;;;;;4.40;3.78;;;14.60;99.90;;;;;;4990439;28;20104;-82
2023/06/17 02:39:13;;;;;;;3.83;3.50;;;14.50;99.90;;;;;;4990672;28;20449;-82
2023/06/17 02:41:41;;;;;;;3.90;3.50;;;14.40;99.90;;;;;;5008704;28;20135;-82
2023/06/17 02:44:08;;;;;;;3.90;3.50;;;14.30;99.90;;;;;;4990566;28;20053;-82
2023/06/17 02:46:34;;;;;;;4.10;3.53;;;14.30;99.90;;;;;;4991101;28;20104;-82
2023/06/17 02:49:01;;;;;;;3.47;3.03;;;14.30;99.90;;;;;;4991126;28;20148;-82
2023/06/17 02:51:29;;;;;;;3.78;3.38;;;14.30;99.90;;;;;;4990370;28;20081;-83
2023/06/17 02:53:56;;;;;;;3.65;2.90;;;14.30;99.90;;;;;;4974410;28;20050;-81
2023/06/17 02:56:22;;;;;;;3.88;3.38;;;14.30;99.90;;;;;;4974735;28;20115;-81
2023/06/17 02:58:50;;;;;;;3.13;2.70;;;14.20;99.90;;;;;;5006380;28;20485;-82
2023/06/17 03:01:17;;;;;;;3.28;2.97;;;14.20;99.90;;;;;;5007628;28;20050;-82
2023/06/17 03:03:44;;;;;;;4.38;3.25;;;14.20;99.90;;;;;;5008183;28;20057;-81
2023/06/17 03:06:13;;;;;;;3.78;2.80;;;14.10;99.90;;;;;;5007698;28;20477;-81
2023/06/17 03:08:40;;;;;;;3.28;2.97;;;14.10;99.90;;;;;;4989838;28;20080;-82
2023/06/17 03:11:07;;;;;;;3.25;2.80;;;14.10;99.90;;;;;;4990714;28;20081;-82
2023/06/17 03:13:33;;;;;;;3.25;2.72;;;14.10;99.90;;;;;;4989693;28;20775;-82
2023/06/17 03:16:01;;;;;;;3.05;2.53;;;14.00;99.90;;;;;;5006637;28;20049;-82
2023/06/17 03:18:28;;;;;;;3.88;2.47;;;14.00;99.90;;;;;;5006355;28;20088;-82
2023/06/17 03:20:55;;;;;;;2.67;2.30;;;14.00;99.90;;;;;;5005818;28;20152;-82
2023/06/17 03:23:22;;;;;;;3.00;2.63;;;13.90;99.90;;;;;;4989692;28;20355;-82
2023/06/17 03:25:49;;;;;;;2.80;2.25;;;13.90;99.90;;;;;;4974281;28;20057;-82
2023/06/17 03:28:17;;;;;;;3.13;2.70;;;13.90;99.90;;;;;;5005629;28;20502;-82
2023/06/17 03:30:44;;;;;;;2.05;1.85;;;13.90;99.90;;;;;;5006306;28;20042;-82
2023/06/17 03:33:14;;;;;;;3.85;2.92;;;13.90;99.90;;;;;;5007347;28;20097;-82
2023/06/17 03:35:41;;;;;;;2.90;2.10;;;13.80;99.90;;;;;;5007200;28;20058;-82
2023/06/17 03:38:09;;;;;;;2.47;2.08;;;13.80;99.90;;;;;;5005512;28;20658;-82
2023/06/17 03:40:36;;;;;;;2.97;2.50;;;13.80;99.90;;;;;;5006330;28;20135;-82
2023/06/17 03:43:03;;;;;;;3.15;2.30;;;13.70;99.90;;;;;;5005265;28;20108;-82
2023/06/17 03:45:30;;;;;;;2.70;2.10;;;13.70;99.90;;;;;;5002357;28;20054;-82
2023/06/17 03:47:58;;;;;;;2.65;2.22;;;13.70;99.90;;;;;;4986189;28;20097;-82
2023/06/17 03:50:25;;;;;;;2.58;1.90;;;13.70;99.90;;;;;;4969941;28;20065;-82
2023/06/17 03:52:52;;;;;;;2.50;2.05;;;13.80;99.90;;;;;;4970220;28;20117;-82
2023/06/17 03:55:19;;;;;;;2.13;1.92;;;13.70;99.90;;;;;;4986409;28;20085;-83
2023/06/17 03:57:46;;;;;;;2.05;1.85;;;13.70;99.90;;;;;;4988505;28;20050;-82
2023/06/17 04:00:15;;;;;;;2.58;2.00;;;13.70;99.90;;;;;;5006354;28;20160;-81
2023/06/17 04:02:45;;;;;;;2.88;2.20;;;13.70;99.90;;;;;;4990297;28;20130;-80
2023/06/17 04:05:13;;;;;;;3.00;2.00;;;13.70;99.90;;;;;;5005177;28;20054;-80
2023/06/17 04:07:40;;;;;;;2.22;1.85;;;13.70;99.90;;;;;;4973374;28;20056;-81
2023/06/17 04:10:08;;;;;;;2.08;1.80;;;13.70;99.90;;;;;;4989042;28;20464;-81
2023/06/17 04:12:38;;;;;;;2.45;1.85;;;13.70;99.90;;;;;;5005205;28;20150;-80
2023/06/17 04:15:06;;;;;;;3.03;2.38;;;13.80;99.90;;;;;;5007052;28;20208;-81
2023/06/17 04:17:36;;;;;;;2.60;2.20;;;13.80;99.90;;;;;;4973612;28;20643;-81
2023/06/17 04:20:09;;;;;;;3.45;2.63;;;13.80;99.90;;;;;;5005681;28;20358;-81
2023/06/17 04:22:40;;;;;;;2.90;2.22;;;13.80;99.90;;;;;;5005484;28;20045;-81
2023/06/17 04:25:08;;;;;;;2.40;2.17;;;13.80;99.90;;;;;;4973562;28;20042;-81
2023/06/17 04:27:36;;;;;;;2.95;2.30;;;13.90;99.90;;;;;;4989182;28;20765;-81
2023/06/17 04:30:04;;;;;;;2.60;2.20;;;14.00;99.90;;;;;;4988876;28;20050;-81
2023/06/17 04:32:35;;;;;;;2.67;2.10;;;14.00;99.90;;;;;;4989415;28;20065;-81
2023/06/17 04:35:04;;;;;;;3.08;2.47;;;14.10;99.90;;;;;;4989616;28;20085;-81
2023/06/17 04:37:32;;;;;;;2.72;2.00;;;14.10;99.90;;;;;;4973654;28;20482;-81
2023/06/17 04:39:59;;;;;;;2.72;2.42;;;14.20;99.90;;;;;;4989017;28;20553;-81
2023/06/17 04:42:26;;;;;;;2.65;2.30;;;14.20;99.90;;;;;;4972303;28;20046;-81
2023/06/17 04:44:53;;;;;;;2.95;2.53;;;14.30;99.90;;;;;;5005219;28;20050;-81
2023/06/17 04:47:20;;;;;;;2.70;2.42;;;14.40;99.90;;;;;;4988517;28;20046;-81
2023/06/17 04:49:47;;;;;;;2.80;2.50;;;14.50;99.90;;;;;;5002192;28;20172;-80
2023/06/17 04:52:14;;;;;;;2.38;2.17;;;14.60;99.90;;;;;;4996135;28;20085;-77
2023/06/17 04:54:41;;;;;;;3.13;2.75;;;14.70;99.90;;;;;;4993277;28;20463;-79
2023/06/17 04:57:08;;;;;;;3.33;2.63;;;14.80;99.90;;;;;;5002999;28;20058;-82
2023/06/17 04:59:35;;;;;;;2.90;2.30;;;14.90;99.90;;;;;;5004356;28;20058;-81
2023/06/17 05:02:03;;;;;;;2.58;2.08;;;15.00;99.90;;;;;;5003089;28;20104;-81
2023/06/17 05:04:30;;;;;;;3.00;2.47;;;15.10;99.90;;;;;;4983486;28;20484;-81
2023/06/17 05:06:57;;;;;;;2.88;2.40;;;15.20;99.90;;;;;;4999961;28;20440;-81
2023/06/17 05:09:24;;;;;;;2.53;2.13;;;15.20;99.90;;;;;;5003177;28;20053;-81
2023/06/17 05:11:50;;;;;;;2.67;1.88;;;15.30;99.90;;;;;;5002533;28;20058;-82
2023/06/17 05:14:17;;;;;;;3.22;2.90;;;15.40;99.90;;;;;;5002499;28;20053;-81
2023/06/17 05:16:44;;;;;;;3.25;2.78;;;15.30;99.90;;;;;;5003409;28;20054;-81
2023/06/17 05:19:11;;;;;;;2.92;2.42;;;15.40;99.90;;;;;;4968236;28;20137;-81
2023/06/17 05:21:38;;;;;;;3.22;2.53;;;15.50;99.90;;;;;;5000530;28;20350;-80
2023/06/17 05:24:05;;;;;;;3.20;2.15;;;15.50;99.90;;;;;;5003879;28;20046;-81
2023/06/17 05:26:32;;;;;;;2.60;2.10;;;15.60;99.90;;;;;;5002918;28;20050;-81
2023/06/17 05:28:58;;;;;;;2.30;2.00;;;15.60;99.90;;;;;;5000276;28;20464;-80
2023/06/17 05:31:25;;;;;;;1.98;1.77;;;15.70;99.90;;;;;;5000887;28;20115;-80
2023/06/17 05:33:52;;;;;;;2.00;1.65;;;15.70;99.90;;;;;;5001870;28;20058;-81
2023/06/17 05:36:19;;;;;;;2.70;2.13;;;15.80;99.90;;;;;;4986316;28;20049;-80
2023/06/17 05:38:46;;;;;;;3.35;2.92;;;15.80;99.90;;;;;;4982592;28;20134;-80
2023/06/17 05:41:12;;;;;;;2.55;1.90;;;15.80;99.90;;;;;;5000647;28;20052;-80
2023/06/17 05:43:39;;;;;;;2.10;1.70;;;15.90;99.90;;;;;;5001708;28;20058;-80
2023/06/17 05:46:06;;;;;;;3.10;2.20;;;16.00;99.90;;;;;;4996347;28;20561;-80
2023/06/17 05:48:33;;;;;;;2.08;1.88;;;16.10;99.90;;;;;;4966540;28;20133;-81
2023/06/17 05:51:00;;;;;;;3.47;2.88;;;16.20;99.90;;;;;;4997395;28;20453;-80
2023/06/17 05:53:27;;;;;;;2.88;2.30;;;16.20;99.90;;;;;;5000782;28;20975;-80
2023/06/17 05:55:53;;;;;;;3.65;2.83;;;16.20;99.90;;;;;;4999682;28;20070;-79
2023/06/17 05:58:20;;;;;;;3.65;3.10;;;16.30;99.90;;;;;;4982859;28;20045;-81
2023/06/17 06:00:47;;;;;;;2.70;2.50;;;16.30;99.90;;;;;;5002309;28;20225;-81
2023/06/17 06:03:14;;;;;;;2.83;2.20;;;16.30;99.90;;;;;;5000809;28;20054;-80
2023/06/17 06:05:41;;;;;;;2.90;2.28;;;16.30;99.90;;;;;;4997628;28;20133;-80
2023/06/17 06:08:07;;;;;;;2.80;2.42;;;16.50;99.90;;;;;;4993582;28;20435;-80
2023/06/17 06:10:34;;;;;;;3.03;2.08;;;16.50;99.90;;;;;;4999876;28;20126;-81
2023/06/17 06:13:01;;;;;;;2.25;1.75;;;16.50;99.90;;;;;;4987004;28;20598;-81
2023/06/17 06:15:28;;;;;;;3.50;2.25;;;16.70;99.90;;;;;;5002404;28;20434;-81
2023/06/17 06:17:54;;;;;;;1.80;1.45;;;16.70;99.90;;;;;;4986661;28;20053;-80
2023/06/17 06:20:21;;;;;;;2.30;1.77;;;16.70;99.90;;;;;;5006254;28;20046;-80
2023/06/17 06:22:49;;;;;;;1.88;1.63;;;16.70;99.90;;;;;;5006404;28;20164;-80
2023/06/17 06:25:16;;;;;;;2.75;2.00;;;16.70;99.90;;;;;;5001738;28;20477;-81
2023/06/17 06:27:44;;;;;;;2.20;1.80;;;16.70;99.90;;;;;;5002882;28;20057;-81
2023/06/17 06:30:12;;;;;;;2.95;1.95;;;16.70;99.90;;;;;;5004874;28;20600;-82
2023/06/17 06:32:39;;;;;;;2.22;1.70;;;16.80;99.90;;;;;;5005035;28;20536;-82
2023/06/17 06:35:06;;;;;;;2.00;1.83;;;16.90;99.90;;;;;;5004251;28;20515;-81
2023/06/17 06:37:33;;;;;;;2.33;1.80;;;17.00;99.90;;;;;;4988604;28;20540;-80
2023/06/17 06:40:00;;;;;;;2.40;1.80;;;17.00;99.90;;;;;;5004345;28;20054;-82
2023/06/17 06:42:27;;;;;;;2.67;2.10;;;17.10;99.90;;;;;;4972469;28;20073;-80
2023/06/17 06:44:53;;;;;;;2.88;1.58;;;17.10;99.90;;;;;;5005083;28;20064;-81
2023/06/17 06:47:20;;;;;;;2.80;1.80;;;17.20;99.90;;;;;;4989039;28;20100;-81
2023/06/17 06:49:47;;;;;;;2.63;1.92;;;17.30;99.90;;;;;;5004999;28;21106;-80
2023/06/17 06:52:14;;;;;;;2.72;2.03;;;17.30;99.90;;;;;;5004046;28;20623;-81
2023/06/17 06:54:40;;;;;;;2.63;1.80;;;17.50;99.90;;;;;;5004768;28;20073;-80
2023/06/17 06:57:07;;;;;;;2.60;1.88;;;17.60;99.90;;;;;;5004202;28;20504;-82
2023/06/17 06:59:34;;;;;;;2.65;1.77;;;17.70;99.90;;;;;;5000825;28;20509;-79
2023/06/17 07:02:01;;;;;;;2.63;1.85;;;17.80;99.90;;;;;;5002957;28;20104;-80
2023/06/17 07:04:28;;;;;;;4.07;1.60;;;17.90;99.90;;;;;;5001592;28;20660;-81
2023/06/17 07:06:55;;;;;;;1.70;1.50;;;18.00;99.90;;;;;;5001300;28;20085;-80
2023/06/17 07:09:21;;;;;;;2.65;1.35;;;18.00;99.90;;;;;;4978194;28;20050;-79
2023/06/17 07:11:49;;;;;;;2.03;1.45;;;18.10;99.90;;;;;;5000099;28;20054;-80
2023/06/17 07:14:15;;;;;;;2.10;1.67;;;18.30;99.90;;;;;;5000501;28;20057;-80
2023/06/17 07:16:42;;;;;;;2.38;2.00;;;18.40;99.90;;;;;;5002691;28;20504;-81
2023/06/17 07:19:09;;;;;;;2.30;2.10;;;18.40;99.90;;;;;;5002940;28;20505;-80
2023/06/17 07:21:36;;;;;;;2.10;1.75;;;18.50;99.90;;;;;;4987187;28;20046;-80
2023/06/17 07:24:03;;;;;;;2.63;2.10;;;18.70;99.90;;;;;;4986751;28;20064;-79
2023/06/17 07:26:30;;;;;;;3.15;1.88;;;18.70;99.90;;;;;;5001571;28;20834;-80
2023/06/17 07:29:00;;;;;;;2.05;1.83;;;18.70;99.90;;;;;;5001661;28;20057;-79
2023/06/17 07:31:30;;;;;;;1.55;1.35;;;18.80;99.90;;;;;;4999793;28;20054;-80
2023/06/17 07:33:57;;;;;;;2.08;1.30;;;19.10;99.90;;;;;;5002696;28;20120;-80
2023/06/17 07:36:26;;;;;;;2.28;1.42;;;19.20;99.90;;;;;;4995522;28;20042;-81
2023/06/17 07:38:52;;;;;;;1.50;1.23;;;19.40;99.90;;;;;;4969272;28;20053;-80
2023/06/17 07:41:20;;;;;;;1.48;1.35;;;19.60;99.90;;;;;;4998121;28;20488;-82
2023/06/17 07:43:47;;;;;;;1.45;1.35;;;19.60;99.90;;;;;;4999144;28;20120;-80
2023/06/17 07:46:14;;;;;;;2.25;1.85;;;19.60;99.90;;;;;;5002227;28;20046;-81
2023/06/17 07:48:41;;;;;;;1.90;1.63;;;19.70;99.90;;;;;;5000015;28;20124;-80
2023/06/17 07:51:08;;;;;;;1.98;1.33;;;19.70;99.90;;;;;;5001288;28;20497;-81
2023/06/17 07:53:35;;;;;;;2.15;1.60;;;19.90;99.90;;;;;;4983019;28;20555;-81
2023/06/17 07:56:01;;;;;;;1.98;1.40;;;20.00;99.90;;;;;;4999717;28;20046;-81
2023/06/17 07:58:28;;;;;;;1.75;1.27;;;20.10;99.90;;;;;;4983987;28;20050;-81
2023/06/17 08:00:55;;;;;;;1.90;1.60;;;20.10;99.90;;;;;;4986943;28;20129;-82
2023/06/17 08:03:22;;;;;;;1.35;1.08;;;20.20;99.90;;;;;;4982758;28;20442;-81
2023/06/17 08:05:49;;;;;;;1.67;1.50;;;20.40;99.90;;;;;;4999103;28;20070;-81
2023/06/17 08:08:15;;;;;;;5.22;1.83;;;20.50;99.90;;;;;;5002482;28;20578;-82
2023/06/17 08:10:43;;;;;;;2.40;1.63;;;20.70;99.90;;;;;;4984497;28;20110;-78
2023/06/17 08:13:09;;;;;;;2.60;2.20;;;20.80;99.90;;;;;;5000727;28;20056;-81
2023/06/17 08:15:36;;;;;;;2.10;1.70;;;21.00;99.90;;;;;;4999416;28;20149;-81
2023/06/17 08:18:03;;;;;;;1.73;1.45;;;21.10;99.90;;;;;;4981014;28;20089;-82
2023/06/17 08:20:30;;;;;;;1.85;1.45;;;21.10;99.90;;;;;;4999070;28;20057;-81
2023/06/17 08:22:57;;;;;;;1.33;0.90;;;21.10;99.90;;;;;;5002052;28;20390;-80
2023/06/17 08:25:23;;;;;;;1.80;1.38;;;21.10;99.90;;;;;;4997164;28;20065;-81
2023/06/17 08:27:50;;;;;;;1.67;1.45;;;21.20;99.90;;;;;;4963735;28;20068;-81
2023/06/17 08:30:17;;;;;;;1.92;1.50;;;21.30;99.90;;;;;;4981817;28;21494;-81
2023/06/17 08:32:45;;;;;;;1.88;1.35;;;21.40;99.90;;;;;;4999420;28;20058;-81
2023/06/17 08:35:12;;;;;;;1.20;1.10;;;21.60;99.90;;;;;;5001212;28;20453;-81
2023/06/17 08:37:38;;;;;;;1.63;1.48;;;21.70;99.90;;;;;;4997042;28;20175;-81
2023/06/17 08:40:06;;;;;;;1.48;1.10;;;21.60;99.90;;;;;;5003713;28;20050;-80
2023/06/17 08:42:32;;;;;;;1.70;1.35;;;21.60;99.90;;;;;;4998585;28;20582;-81
2023/06/17 08:45:00;;;;;;;1.33;1.23;;;21.60;99.90;;;;;;4995232;28;20052;-81
2023/06/17 08:47:27;;;;;;;1.70;1.20;;;21.70;99.90;;;;;;4991585;28;20062;-80
2023/06/17 08:49:55;;;;;;;1.73;1.08;;;21.70;99.90;;;;;;4998288;28;20046;-81
2023/06/17 08:52:23;;;;;;;1.58;1.35;;;21.70;99.90;;;;;;4985846;28;20524;-81
2023/06/17 08:54:50;;;;;;;2.33;1.48;;;21.80;99.90;;;;;;4986309;28;20104;-81
2023/06/17 08:57:17;;;;;;;1.77;1.50;;;21.90;99.90;;;;;;4967224;28;20058;-81
2023/06/17 08:59:45;;;;;;;1.70;1.50;;;22.00;99.90;;;;;;4964775;28;20081;-81
2023/06/17 09:02:14;;;;;;;2.05;1.45;;;22.10;99.90;;;;;;4969279;28;20092;-82
2023/06/17 09:04:41;;;;;;;1.83;1.60;;;22.30;99.90;;;;;;4981546;28;20050;-79
2023/06/17 09:07:09;;;;;;;1.83;1.27;;;22.40;99.90;;;;;;5010993;28;20367;-80
2023/06/17 09:09:36;;;;;;;1.95;1.10;;;22.50;99.90;;;;;;5014198;28;20268;-80
2023/06/17 09:12:08;;;;;;;1.77;1.30;;;22.60;99.90;;;;;;5020504;28;20129;-81
2023/06/17 09:14:36;;;;;;;1.47;1.27;;;22.60;99.90;;;;;;4972693;28;20061;-81
2023/06/17 09:17:02;;;;;;;1.90;1.30;;;22.50;99.90;;;;;;4974469;28;20303;-81
2023/06/17 09:19:31;;;;;;;1.60;1.30;;;22.70;99.90;;;;;;5008531;28;20053;-81
2023/06/17 09:22:07;;;;;;;1.60;1.30;;;22.90;99.90;;;;;;4987583;28;20041;-81
2023/06/17 09:24:34;;;;;;;1.70;1.20;;;23.20;99.90;;;;;;5000148;28;20571;-80
2023/06/17 09:27:02;;;;;;;1.55;1.20;;;23.20;99.90;;;;;;4998246;28;20069;-81
2023/06/17 09:29:29;;;;;;;1.85;1.25;;;23.30;99.20;;;;;;4997869;28;20132;-82
2023/06/17 09:31:57;;;;;;;2.85;1.20;;;23.30;99.40;;;;;;4983724;28;20429;-81
2023/06/17 09:34:26;;;;;;;3.67;2.35;;;23.40;98.80;;;;;;5002308;28;20057;-81
2023/06/17 09:37:03;;;;;;;1.90;1.50;;;23.40;98.50;;;;;;5000403;28;20627;-81
2023/06/17 09:39:31;;;;;;;2.63;1.70;;;23.50;98.70;;;;;;5005750;28;20076;-81
2023/06/17 09:42:07;;;;;;;2.08;1.63;;;23.60;98.30;;;;;;5013410;28;20071;-81
2023/06/17 09:44:35;;;;;;;2.10;1.67;;;23.60;98.00;;;;;;4999910;28;20519;-80
2023/06/17 09:47:08;;;;;;;2.38;1.92;;;23.60;97.70;;;;;;5005626;28;20475;-81
2023/06/17 09:49:36;;;;;;;2.17;1.73;;;23.40;97.50;;;;;;4989507;28;20116;-80
2023/06/17 09:52:05;;;;;;;2.25;1.67;;;23.30;97.90;;;;;;5004723;28;20461;-81
2023/06/17 09:54:33;;;;;;;1.67;1.48;;;23.30;98.10;;;;;;4988427;28;20396;-82
2023/06/17 09:57:02;;;;;;;1.65;1.42;;;23.40;98.70;;;;;;5007184;28;20129;-81
2023/06/17 09:59:30;;;;;;;2.50;1.80;;;23.50;98.30;;;;;;4989531;28;20108;-81
2023/06/17 10:01:56;;;;;;;2.53;2.13;;;23.40;98.20;;;;;;5011816;28;20060;-80
2023/06/17 10:04:23;;;;;;;2.67;2.35;;;23.20;97.80;;;;;;5010920;28;20583;-81
2023/06/17 10:06:50;;;;;;;2.17;1.98;;;23.20;97.70;;;;;;5014057;28;20045;-81
2023/06/17 10:09:17;;;;;;;2.30;2.10;;;23.30;97.60;;;;;;5005299;28;20054;-81
2023/06/17 10:11:45;;;;;;;1.80;1.40;;;23.30;97.70;;;;;;5004847;28;20050;-82
2023/06/17 10:14:23;;;;;;;9.55;2.67;;;23.50;97.30;;;;;;5004686;28;20050;-81
2023/06/17 10:16:50;;;;;;;2.10;1.60;;;23.80;97.00;;;;;;5005680;28;20137;-80
2023/06/17 10:19:19;;;;;;;2.42;1.88;;;23.80;96.70;;;;;;5005224;28;20307;-81
2023/06/17 10:21:48;;;;;;;2.90;2.03;;;23.80;96.40;;;;;;5004538;28;20120;-81
2023/06/17 10:24:14;;;;;;;1.88;1.40;;;23.70;96.80;;;;;;4986180;28;20073;-82
2023/06/17 10:26:42;;;;;;;3.33;2.10;;;23.80;96.80;;;;;;5002043;28;20191;-82
2023/06/17 10:29:11;;;;;;;2.17;1.73;;;23.90;96.80;;;;;;5003182;28;20050;-81
2023/06/17 10:31:40;;;;;;;2.17;1.95;;;24.10;97.00;;;;;;4988775;28;20089;-81
2023/06/17 10:34:21;;;;;;;2.55;2.10;;;24.50;96.10;;;;;;5004963;28;20124;-81
2023/06/17 10:36:48;;;;;;;2.67;1.90;;;24.60;95.80;;;;;;5004283;28;20065;-81
2023/06/17 10:39:15;;;;;;;2.15;1.90;;;24.70;95.20;;;;;;5004632;28;20134;-82
2023/06/17 10:41:42;;;;;;;2.22;1.67;;;24.90;94.90;;;;;;5004070;28;20108;-82
2023/06/17 10:44:30;;;;;;;2.78;2.05;;;25.00;94.20;;;;;;5004232;28;20408;-81
2023/06/17 10:46:57;;;;;;;3.55;2.78;;;25.00;94.00;;;;;;5004017;28;20177;-81
2023/06/17 10:49:24;;;;;;;3.13;2.25;;;24.80;93.50;;;;;;5004668;28;20447;-82
2023/06/17 10:51:57;;;;;;;2.97;2.30;;;24.70;93.90;;;;;;5004152;28;20129;-81
2023/06/17 10:54:29;;;;;;;2.88;2.20;;;24.80;93.60;;;;;;5005654;28;20061;-82
2023/06/17 10:56:56;;;;;;;2.92;2.00;;;24.80;93.40;;;;;;5004459;28;20056;-82
2023/06/17 10:59:27;;;;;;;2.58;2.20;;;25.00;94.00;;;;;;5003872;28;20466;-81
2023/06/17 11:02:06;;;;;;;3.50;2.10;;;25.20;93.70;;;;;;4988616;28;20049;-81
2023/06/17 11:04:43;;;;;;;2.30;2.10;;;25.40;92.60;;;;;;5004109;28;20068;-80
2023/06/17 11:07:09;;;;;;;3.95;1.88;;;25.60;92.60;;;;;;5005238;28;20046;-82
2023/06/17 11:09:37;;;;;;;2.92;2.10;;;25.50;92.90;;;;;;5005119;28;20058;-81
2023/06/17 11:12:04;;;;;;;4.10;2.05;;;25.50;92.60;;;;;;4998211;28;20066;-82
2023/06/17 11:14:31;;;;;;;4.00;2.55;;;25.60;92.60;;;;;;5001746;28;20053;-81
2023/06/17 11:16:58;;;;;;;3.63;2.40;;;25.90;93.20;;;;;;5004066;28;20076;-82
2023/06/17 11:19:25;;;;;;;2.20;1.90;;;26.10;92.80;;;;;;4987891;28;20108;-81
2023/06/17 11:22:03;;;;;;;2.85;1.70;;;26.20;93.00;;;;;;5003273;28;20054;-81
2023/06/17 11:24:30;;;;;;;2.22;1.58;;;26.30;91.80;;;;;;5000724;28;20054;-81
2023/06/17 11:26:58;;;;;;;1.77;1.45;;;26.60;92.10;;;;;;5000426;28;20101;-81
2023/06/17 11:29:26;;;;;;;5.95;2.75;;;26.40;92.10;;;;;;4986141;28;20463;-81
2023/06/17 11:31:59;;;;;;;6.35;4.28;;;26.30;91.90;;;;;;4987448;28;20136;-81
2023/06/17 11:34:32;;;;;;;4.70;2.65;;;26.10;91.30;;;;;;4987618;28;20053;-82
2023/06/17 11:37:00;;;;;;;1.88;1.63;;;26.00;91.50;;;;;;5003305;28;20050;-81
2023/06/17 11:39:28;;;;;;;2.63;1.73;;;26.40;92.00;;;;;;4982396;28;20050;-82
2023/06/17 11:42:01;;;;;;;2.80;2.17;;;26.60;91.90;;;;;;4997169;28;20089;-80
2023/06/17 11:44:29;;;;;;;2.20;1.85;;;26.80;91.70;;;;;;4996747;28;20073;-83
2023/06/17 11:46:58;;;;;;;1.90;1.52;;;26.90;91.60;;;;;;4981121;28;20117;-82
2023/06/17 11:49:28;;;;;;;2.33;1.90;;;27.10;90.60;;;;;;4997428;28;20149;-82
2023/06/17 11:51:59;;;;;;;2.85;2.28;;;27.10;90.90;;;;;;4998543;28;20813;-82
2023/06/17 11:54:26;;;;;;;2.92;2.17;;;27.00;90.40;;;;;;4981959;28;20442;-81
2023/06/17 11:56:53;;;;;;;2.40;2.00;;;27.10;90.70;;;;;;4996163;28;20077;-82
2023/06/17 11:59:20;;;;;;;3.22;2.00;;;27.20;91.10;;;;;;5001531;28;20046;-83
2023/06/17 12:01:47;;;;;;;2.92;2.17;;;27.30;90.90;;;;;;5003972;28;20149;-82
2023/06/17 12:04:14;;;;;;;3.50;1.90;;;27.40;90.60;;;;;;5002730;28;20052;-82
2023/06/17 12:06:42;;;;;;;3.67;2.65;;;27.50;90.50;;;;;;4997010;28;20045;-83
2023/06/17 12:09:10;;;;;;;3.50;2.50;;;27.60;90.70;;;;;;5012475;28;20053;-82
2023/06/17 12:11:42;;;;;;;3.90;2.72;;;27.80;90.90;;;;;;5004103;28;20084;-82
2023/06/17 12:14:10;;;;;;;2.95;2.30;;;27.80;90.20;;;;;;5003713;28;20148;-82
2023/06/17 12:16:38;;;;;;;2.53;1.95;;;28.00;90.60;;;;;;5002708;28;20140;-83
2023/06/17 12:19:07;;;;;;;2.75;2.15;;;28.30;90.10;;;;;;5003341;28;20125;-82
2023/06/17 12:21:36;;;;;;;2.70;2.05;;;28.40;88.80;;;;;;4986884;28;20081;-82
2023/06/17 12:24:03;;;;;;;2.70;2.30;;;28.30;88.50;;;;;;4986816;28;20452;-82
2023/06/17 12:26:31;;;;;;;2.80;1.77;;;28.10;87.90;;;;;;5005398;28;20058;-82
2023/06/17 12:28:58;;;;;;;2.35;1.80;;;27.90;87.90;;;;;;5002637;28;20857;-82
2023/06/17 12:31:31;;;;;;;2.47;2.15;;;27.30;87.20;;;;;;5005544;28;20045;-82
2023/06/17 12:33:58;;;;;;;2.33;1.75;;;27.30;89.00;;;;;;5010131;28;20100;-82
2023/06/17 12:36:25;;;;;;;1.92;1.73;;;27.50;88.50;;;;;;4995584;28;20478;-82
2023/06/17 12:38:52;;;;;;;2.40;1.92;;;28.10;87.50;;;;;;5005898;28;20096;-82
2023/06/17 12:41:19;;;;;;;3.58;1.92;;;28.60;86.10;;;;;;5001072;28;20045;-81
2023/06/17 12:43:47;;;;;;;1.90;1.70;;;28.90;87.10;;;;;;4985144;28;20112;-83
2023/06/17 12:46:17;;;;;;;2.33;2.13;;;28.80;87.60;;;;;;5010655;28;20075;-83
2023/06/17 12:48:44;;;;;;;2.70;2.22;;;28.90;86.70;;;;;;5008784;28;20107;-83
2023/06/17 12:51:11;;;;;;;2.42;1.92;;;28.90;86.80;;;;;;5004878;28;20045;-84